Carlyle, Illinois
Current Conditions -  °F | °C
As of 12:15 PM on Friday 31 Oct 2014 (Local Time) from KENL Reporting Station
Broken Clouds Broken Clouds  
Wind Chill: 32°   Ceiling: 4200
Heat Index: 42°   Visibility: 10mi
Dew Point: 26°   Wind: 26mph
Humidity: 53%   Direction: 340°NNW
Pressure: 30.21"   Gusts: 31mph
Location:  38.61°N, 89.37°W
Report Text: KENL 311715Z AUTO 34023G27KT 10SM BKN042 06/M03 A3021 RMK AO2 T00571033
Loading
Personal Weather Stations






























Interactive Weather Map
Tropical Storm Tracking
New forecast layout! Learn more

10-Day Weather Forecast

Advertisements
Track Severe Weather on mobile